Time;durP1;ratioP1;P1;durP2;ratioP2;P2;SDS_P1;SDS_P2;PMS_P1;PMS_P2;Temp;Humidity;BMP_temperature;BMP_pressure;BME280_temperature;BME280_humidity;BME280_pressure;Samples;Min_cycle;Max_cycle;Signal;HPM_P1;HPM_P2
2023/03/01 00:01:03;;;;;;;12.50;8.73;;;1.80;99.90;;;;;;4836988;29;20999;-59
2023/03/01 00:03:33;;;;;;;12.87;9.17;;;1.60;99.90;;;;;;4831192;29;20829;-59
2023/03/01 00:06:01;;;;;;;13.87;9.03;;;1.50;99.90;;;;;;4842335;29;20510;-59
2023/03/01 00:08:29;;;;;;;13.93;9.10;;;1.30;99.90;;;;;;4842137;29;20561;-59
2023/03/01 00:11:02;;;;;;;15.63;10.30;;;1.30;99.90;;;;;;4853193;29;20485;-59
2023/03/01 00:13:30;;;;;;;13.07;8.93;;;1.40;99.90;;;;;;4853114;29;20492;-59
2023/03/01 00:15:59;;;;;;;11.13;8.53;;;1.50;99.90;;;;;;4850161;29;20505;-59
2023/03/01 00:18:27;;;;;;;16.63;11.37;;;1.50;99.90;;;;;;4842784;29;20538;-59
2023/03/01 00:20:57;;;;;;;15.43;9.60;;;1.70;99.90;;;;;;4842587;29;20470;-59
2023/03/01 00:23:25;;;;;;;16.73;10.90;;;1.80;99.90;;;;;;4848162;29;20516;-59
2023/03/01 00:25:53;;;;;;;14.87;10.07;;;1.60;99.90;;;;;;4852953;29;20991;-59
2023/03/01 00:28:22;;;;;;;13.63;8.80;;;1.40;99.90;;;;;;4860531;29;20475;-59
2023/03/01 00:30:50;;;;;;;15.00;10.00;;;1.80;99.90;;;;;;4860219;29;20830;-59
2023/03/01 00:33:19;;;;;;;14.30;9.23;;;1.50;99.90;;;;;;4842160;29;20465;-59
2023/03/01 00:35:47;;;;;;;11.23;8.10;;;1.50;99.90;;;;;;4841874;29;20469;-59
2023/03/01 00:38:16;;;;;;;11.90;8.83;;;1.30;99.90;;;;;;4842018;29;20492;-59
2023/03/01 00:40:44;;;;;;;12.50;8.33;;;1.40;99.90;;;;;;4841893;29;20611;-59
2023/03/01 00:43:12;;;;;;;9.17;7.20;;;1.20;99.90;;;;;;4849766;29;20480;-59
2023/03/01 00:45:40;;;;;;;11.87;7.50;;;1.30;99.90;;;;;;4841967;29;20841;-59
2023/03/01 00:48:08;;;;;;;10.77;7.40;;;1.40;99.90;;;;;;4843473;29;20487;-59
2023/03/01 00:50:36;;;;;;;11.43;7.53;;;1.40;99.90;;;;;;4841450;29;20581;-59
2023/03/01 00:53:05;;;;;;;10.33;7.50;;;1.60;99.90;;;;;;4845048;29;20969;-59
2023/03/01 00:55:36;;;;;;;9.57;7.43;;;1.50;99.90;;;;;;4852097;29;20480;-59
2023/03/01 00:58:06;;;;;;;8.77;7.23;;;1.60;99.90;;;;;;4860096;29;20460;-59
2023/03/01 01:00:34;;;;;;;9.27;7.40;;;1.80;99.90;;;;;;4859647;29;20503;-59
2023/03/01 01:03:02;;;;;;;9.30;6.93;;;1.70;99.90;;;;;;4858773;29;20481;-59
2023/03/01 01:05:31;;;;;;;7.83;6.27;;;1.50;99.90;;;;;;4859895;29;20477;-59
2023/03/01 01:07:59;;;;;;;11.50;7.40;;;1.70;99.90;;;;;;4858744;29;20498;-59
2023/03/01 01:10:27;;;;;;;7.73;6.10;;;1.60;99.90;;;;;;4859960;29;20491;-59
2023/03/01 01:12:56;;;;;;;8.80;6.87;;;1.60;99.90;;;;;;4852520;29;20483;-59
2023/03/01 01:15:24;;;;;;;9.43;6.53;;;1.70;99.90;;;;;;4840069;29;20523;-58
2023/03/01 01:17:52;;;;;;;10.13;7.53;;;1.70;99.90;;;;;;4841685;29;20478;-59
2023/03/01 01:20:21;;;;;;;8.20;6.53;;;1.60;99.90;;;;;;4841072;29;20500;-59
2023/03/01 01:22:49;;;;;;;9.30;6.67;;;1.70;99.90;;;;;;4849372;29;20485;-59
2023/03/01 01:25:17;;;;;;;9.37;6.77;;;1.70;99.90;;;;;;4855687;29;20832;-59
2023/03/01 01:27:45;;;;;;;9.23;6.90;;;1.70;99.90;;;;;;4863048;29;20462;-59
2023/03/01 01:30:15;;;;;;;11.47;7.43;;;1.50;99.90;;;;;;4862569;29;20504;-60
2023/03/01 01:32:43;;;;;;;9.07;6.40;;;1.40;99.90;;;;;;4862935;29;20463;-59
2023/03/01 01:35:11;;;;;;;8.43;6.77;;;1.60;99.90;;;;;;4863025;29;20472;-59
2023/03/01 01:37:39;;;;;;;8.53;6.43;;;1.60;99.90;;;;;;4861626;29;20488;-59
2023/03/01 01:40:08;;;;;;;9.70;7.03;;;1.50;99.90;;;;;;4861692;29;20863;-59
2023/03/01 01:42:36;;;;;;;8.80;7.03;;;1.40;99.90;;;;;;4856617;29;20915;-60
2023/03/01 01:45:29;;;;;;;9.40;7.27;;;1.50;99.90;;;;;;4829722;29;20461;-59
2023/03/01 01:48:00;;;;;;;9.07;6.73;;;1.60;99.90;;;;;;4842954;29;20477;-59
2023/03/01 01:50:37;;;;;;;11.17;7.80;;;1.30;99.90;;;;;;4843917;29;20496;-59
2023/03/01 01:53:10;;;;;;;9.50;7.10;;;1.10;99.90;;;;;;4851975;29;20969;-59
2023/03/01 01:55:43;;;;;;;8.70;5.87;;;0.90;99.90;;;;;;4854804;29;20832;-59
2023/03/01 01:58:14;;;;;;;9.93;7.60;;;1.20;99.90;;;;;;4861347;29;20929;-59
2023/03/01 02:00:44;;;;;;;10.40;7.17;;;1.00;99.90;;;;;;4862175;29;20488;-59
2023/03/01 02:03:17;;;;;;;8.37;6.43;;;0.80;99.90;;;;;;4862661;29;20507;-59
2023/03/01 02:05:51;;;;;;;9.20;6.13;;;0.90;99.90;;;;;;4862365;29;20471;-59
2023/03/01 02:08:30;;;;;;;9.27;6.40;;;0.90;99.90;;;;;;4862804;29;20877;-59
2023/03/01 02:10:59;;;;;;;8.93;6.37;;;1.00;99.90;;;;;;4859273;29;20515;-60
2023/03/01 02:13:27;;;;;;;9.40;6.23;;;1.10;99.90;;;;;;4851143;29;20818;-58
2023/03/01 02:15:57;;;;;;;8.83;7.03;;;1.10;99.90;;;;;;4843709;29;20563;-59
2023/03/01 02:18:26;;;;;;;8.77;6.70;;;1.30;99.90;;;;;;4843737;29;20512;-59
2023/03/01 02:21:09;;;;;;;9.30;6.70;;;1.30;99.90;;;;;;4843719;29;20469;-59
2023/03/01 02:23:37;;;;;;;10.13;7.27;;;1.40;99.90;;;;;;4856550;29;20471;-59
2023/03/01 02:26:13;;;;;;;9.53;6.53;;;1.40;99.90;;;;;;4847623;29;20972;-60
2023/03/01 02:28:44;;;;;;;10.77;7.37;;;1.40;99.90;;;;;;4860775;29;20486;-59
2023/03/01 02:34:05;;;;;;;9.53;6.63;;;1.30;99.90;;;;;;4860896;29;20518;-59
2023/03/01 02:36:37;;;;;;;9.87;6.33;;;1.00;99.90;;;;;;4860504;29;20566;-59
2023/03/01 02:39:14;;;;;;;8.80;6.77;;;1.00;99.90;;;;;;4861999;29;20468;-59
2023/03/01 02:41:44;;;;;;;8.40;6.57;;;1.00;99.90;;;;;;4853640;29;20515;-59
2023/03/01 02:44:14;;;;;;;10.20;6.93;;;1.30;99.90;;;;;;4848467;29;20480;-59
2023/03/01 02:46:45;;;;;;;8.67;6.43;;;1.10;99.90;;;;;;4842922;29;20973;-59
2023/03/01 02:49:24;;;;;;;10.00;6.07;;;1.20;99.90;;;;;;4853759;29;20564;-59
2023/03/01 02:52:23;;;;;;;8.60;6.30;;;1.40;99.90;;;;;;4861707;29;20493;-59
2023/03/01 02:54:55;;;;;;;7.70;5.70;;;1.30;99.90;;;;;;4849456;29;20496;-59
2023/03/01 02:57:27;;;;;;;10.43;6.07;;;1.40;99.90;;;;;;4849587;29;20479;-59
2023/03/01 03:00:00;;;;;;;9.63;6.67;;;1.50;99.90;;;;;;4841791;29;20496;-59
2023/03/01 03:02:36;;;;;;;7.77;5.83;;;1.50;99.90;;;;;;4841256;29;20484;-59
2023/03/01 03:05:19;;;;;;;9.77;7.23;;;1.30;99.90;;;;;;4841800;29;21082;-59
2023/03/01 03:07:50;;;;;;;7.47;5.43;;;1.20;99.90;;;;;;4841594;29;20572;-59
2023/03/01 03:10:22;;;;;;;11.13;6.33;;;1.20;99.90;;;;;;4841807;29;20528;-59
2023/03/01 03:12:52;;;;;;;9.13;6.53;;;1.20;99.90;;;;;;4850887;29;20498;-59
2023/03/01 03:15:22;;;;;;;9.97;7.47;;;1.40;99.90;;;;;;4841488;29;20477;-59
2023/03/01 03:17:51;;;;;;;9.20;6.53;;;1.30;99.90;;;;;;4841324;29;20470;-59
2023/03/01 03:20:22;;;;;;;10.27;6.57;;;1.30;99.90;;;;;;4842442;29;20481;-59
2023/03/01 03:22:52;;;;;;;8.70;6.20;;;0.90;99.90;;;;;;4844501;29;20991;-59
2023/03/01 03:25:21;;;;;;;10.53;6.27;;;0.70;99.90;;;;;;4848202;29;20472;-59
2023/03/01 03:27:56;;;;;;;9.53;6.57;;;0.50;99.90;;;;;;4842568;29;20468;-59
2023/03/01 03:30:28;;;;;;;6.60;5.03;;;0.40;99.90;;;;;;4842357;29;21012;-59
2023/03/01 03:32:56;;;;;;;7.33;5.20;;;0.70;99.90;;;;;;4842875;29;20964;-59
2023/03/01 03:35:28;;;;;;;11.27;6.60;;;0.80;99.90;;;;;;4842655;29;20486;-58
2023/03/01 03:38:03;;;;;;;8.27;6.07;;;1.00;99.90;;;;;;4842552;29;20573;-59
2023/03/01 03:40:34;;;;;;;9.57;6.60;;;1.20;99.90;;;;;;4842428;29;21032;-59
2023/03/01 03:43:03;;;;;;;9.20;6.63;;;0.90;99.90;;;;;;4849546;29;20833;-59
2023/03/01 03:45:33;;;;;;;10.87;6.90;;;1.00;99.90;;;;;;4852321;29;20958;-59
2023/03/01 03:48:02;;;;;;;14.77;9.40;;;1.10;99.90;;;;;;4842378;29;20515;-59
2023/03/01 03:50:30;;;;;;;15.97;9.20;;;0.90;99.90;;;;;;4842017;29;20480;-59
2023/03/01 03:52:58;;;;;;;15.50;9.60;;;1.00;99.90;;;;;;4844719;29;20487;-59
2023/03/01 03:55:30;;;;;;;18.93;10.67;;;1.10;99.90;;;;;;4852609;29;20471;-60
2023/03/01 03:58:01;;;;;;;17.27;9.70;;;1.30;99.90;;;;;;4861009;29;20479;-59
2023/03/01 04:00:30;;;;;;;20.77;11.33;;;1.40;99.90;;;;;;4856492;29;20469;-59
2023/03/01 04:03:00;;;;;;;16.33;9.40;;;1.00;99.90;;;;;;4829158;29;20475;-59
2023/03/01 04:05:29;;;;;;;18.37;10.27;;;0.90;99.90;;;;;;4823922;29;20469;-59
2023/03/01 04:08:06;;;;;;;11.77;7.43;;;0.60;99.90;;;;;;4824051;29;20471;-59
2023/03/01 04:10:38;;;;;;;14.47;8.57;;;0.90;99.90;;;;;;4824495;29;20891;-59
2023/03/01 04:13:07;;;;;;;16.57;10.17;;;0.80;99.90;;;;;;4842459;29;20903;-59
2023/03/01 04:15:36;;;;;;;16.17;8.97;;;0.60;99.90;;;;;;4842166;29;20919;-59
2023/03/01 04:18:05;;;;;;;17.63;10.20;;;0.40;99.90;;;;;;4834845;29;20879;-59
2023/03/01 04:20:36;;;;;;;12.93;8.33;;;0.20;99.90;;;;;;4842013;29;21007;-59
2023/03/01 04:23:12;;;;;;;13.37;7.93;;;0.30;99.90;;;;;;4850764;29;20522;-59
2023/03/01 04:25:42;;;;;;;8.87;5.63;;;0.30;99.90;;;;;;4852785;29;20479;-59
2023/03/01 04:28:10;;;;;;;9.53;6.13;;;0.70;99.90;;;;;;4860650;29;20499;-59
2023/03/01 04:30:41;;;;;;;10.13;6.70;;;0.80;99.90;;;;;;4856064;29;20489;-59
2023/03/01 04:33:11;;;;;;;12.73;7.17;;;0.80;99.90;;;;;;4842009;29;20468;-59
2023/03/01 04:35:40;;;;;;;8.23;6.30;;;0.70;99.90;;;;;;4842023;29;21036;-59
2023/03/01 04:38:09;;;;;;;13.07;7.80;;;0.50;99.90;;;;;;4842069;29;20469;-59
2023/03/01 04:40:38;;;;;;;11.00;6.93;;;0.50;99.90;;;;;;4841712;29;20590;-59
2023/03/01 04:43:06;;;;;;;9.50;6.70;;;0.60;99.90;;;;;;4842405;29;20498;-59
2023/03/01 04:45:35;;;;;;;9.20;5.77;;;1.00;99.90;;;;;;4841920;29;21005;-59
2023/03/01 04:48:04;;;;;;;7.57;6.40;;;1.00;99.90;;;;;;4836218;29;20487;-59
2023/03/01 04:50:34;;;;;;;10.50;6.87;;;0.90;99.90;;;;;;4824249;29;20477;-59
2023/03/01 04:53:02;;;;;;;8.03;6.17;;;0.70;99.90;;;;;;4840765;29;21064;-59
2023/03/01 04:55:31;;;;;;;7.67;5.07;;;0.50;99.90;;;;;;4850885;29;20532;-59
2023/03/01 04:57:59;;;;;;;7.90;5.10;;;0.70;99.90;;;;;;4862311;29;20490;-59
2023/03/01 05:00:27;;;;;;;6.30;5.20;;;0.80;99.90;;;;;;4850756;29;20836;-59
2023/03/01 05:02:57;;;;;;;7.10;5.83;;;0.90;99.90;;;;;;4845484;29;20477;-59
2023/03/01 05:05:27;;;;;;;7.90;6.00;;;0.80;99.90;;;;;;4847390;29;20480;-58
2023/03/01 05:07:59;;;;;;;7.93;5.63;;;1.00;99.90;;;;;;4847975;29;20827;-59
2023/03/01 05:10:30;;;;;;;8.97;6.23;;;0.60;99.90;;;;;;4845517;29;20472;-59
2023/03/01 05:12:58;;;;;;;7.20;5.23;;;0.40;99.90;;;;;;4852346;29;20511;-60
2023/03/01 05:15:28;;;;;;;7.73;5.00;;;0.30;99.90;;;;;;4863912;29;20885;-59
2023/03/01 05:17:59;;;;;;;6.50;4.83;;;0.70;99.90;;;;;;4847715;29;20481;-59
2023/03/01 05:20:28;;;;;;;7.07;5.93;;;0.60;99.90;;;;;;4844462;29;20477;-59
2023/03/01 05:23:00;;;;;;;5.93;5.13;;;0.60;99.90;;;;;;4849611;29;20478;-59
2023/03/01 05:25:39;;;;;;;6.90;5.67;;;0.90;99.90;;;;;;4855191;29;20472;-60
2023/03/01 05:28:12;;;;;;;7.93;5.73;;;1.10;99.90;;;;;;4863404;29;20978;-59
2023/03/01 05:30:41;;;;;;;8.77;5.77;;;1.30;99.90;;;;;;4844119;29;20483;-59
2023/03/01 05:33:13;;;;;;;6.10;5.20;;;1.30;99.90;;;;;;4844785;29;20496;-59
2023/03/01 05:35:42;;;;;;;9.60;5.73;;;1.30;99.90;;;;;;4826209;29;20859;-59
2023/03/01 05:38:13;;;;;;;7.10;5.37;;;1.50;99.90;;;;;;4826143;29;20530;-59
2023/03/01 05:40:42;;;;;;;6.43;5.40;;;1.40;99.90;;;;;;4844297;29;20481;-59
2023/03/01 05:43:12;;;;;;;8.00;5.73;;;1.50;99.90;;;;;;4855422;29;20476;-59
2023/03/01 05:45:41;;;;;;;7.27;6.50;;;1.80;99.90;;;;;;4846007;29;20833;-59
2023/03/01 05:48:10;;;;;;;7.40;5.83;;;1.60;99.90;;;;;;4844489;29;20473;-59
2023/03/01 05:50:41;;;;;;;9.33;6.47;;;1.50;99.90;;;;;;4843958;29;20481;-59
2023/03/01 05:53:13;;;;;;;10.70;7.27;;;1.60;99.90;;;;;;4846134;29;20494;-58
2023/03/01 05:55:42;;;;;;;9.13;6.90;;;1.10;99.90;;;;;;4851755;29;20484;-59
2023/03/01 05:58:13;;;;;;;7.37;6.60;;;0.80;99.90;;;;;;4844475;29;20477;-60
2023/03/01 06:00:43;;;;;;;9.63;6.63;;;0.90;99.90;;;;;;4843696;29;20553;-59
2023/03/01 06:03:12;;;;;;;12.93;6.97;;;1.10;99.90;;;;;;4860639;29;20532;-59
2023/03/01 06:05:41;;;;;;;14.13;7.80;;;1.70;99.90;;;;;;4835513;29;20474;-59
2023/03/01 06:08:11;;;;;;;9.10;6.97;;;1.30;99.90;;;;;;4829700;29;20533;-59
2023/03/01 06:10:41;;;;;;;9.13;6.70;;;0.90;99.90;;;;;;4844182;29;20488;-58
2023/03/01 06:13:09;;;;;;;7.60;6.30;;;0.80;99.90;;;;;;4848060;29;20492;-59
2023/03/01 06:15:37;;;;;;;8.60;6.27;;;0.60;99.90;;;;;;4842165;29;20479;-59
2023/03/01 06:18:06;;;;;;;8.47;6.30;;;0.50;99.90;;;;;;4843816;29;20524;-59
2023/03/01 06:20:34;;;;;;;8.73;5.40;;;0.50;99.90;;;;;;4839354;29;20481;-59
2023/03/01 06:23:02;;;;;;;9.83;6.57;;;0.60;99.90;;;;;;4838991;29;20557;-59
2023/03/01 06:25:30;;;;;;;8.47;6.33;;;0.80;99.90;;;;;;4833813;29;20561;-59
2023/03/01 06:27:59;;;;;;;10.07;6.30;;;0.90;99.90;;;;;;4838270;29;20468;-59
2023/03/01 06:30:27;;;;;;;8.93;6.70;;;0.70;99.90;;;;;;4843011;29;20476;-59
2023/03/01 06:33:00;;;;;;;8.57;6.27;;;0.80;99.90;;;;;;4833727;29;20506;-59
2023/03/01 06:35:30;;;;;;;9.63;6.70;;;0.70;99.90;;;;;;4842488;29;20488;-59
2023/03/01 06:37:59;;;;;;;10.43;6.70;;;0.60;99.90;;;;;;4837804;29;20575;-59
2023/03/01 06:40:28;;;;;;;9.70;6.60;;;0.70;99.90;;;;;;4824985;29;20521;-60
2023/03/01 06:42:56;;;;;;;11.10;7.37;;;0.60;99.90;;;;;;4853886;29;20979;-59
2023/03/01 06:45:26;;;;;;;9.77;7.70;;;0.70;99.90;;;;;;4861992;29;20991;-59
2023/03/01 06:48:02;;;;;;;8.57;7.30;;;0.60;99.90;;;;;;4845501;29;20479;-59
2023/03/01 06:50:31;;;;;;;11.40;8.33;;;0.70;99.90;;;;;;4852950;29;20966;-59
2023/03/01 06:52:59;;;;;;;12.43;8.50;;;0.50;99.90;;;;;;4851567;29;20487;-59
2023/03/01 06:55:27;;;;;;;11.00;7.87;;;0.50;99.90;;;;;;4853546;29;20479;-59
2023/03/01 06:57:56;;;;;;;10.60;7.50;;;0.60;99.90;;;;;;4843877;29;20481;-58
2023/03/01 07:00:26;;;;;;;10.90;7.37;;;0.80;99.90;;;;;;4837907;29;20477;-59
2023/03/01 07:02:55;;;;;;;10.10;7.17;;;0.80;99.90;;;;;;4832146;29;20831;-59
2023/03/01 07:05:23;;;;;;;11.00;7.87;;;0.90;99.90;;;;;;4842685;29;20478;-59
2023/03/01 07:07:51;;;;;;;9.40;6.60;;;0.80;99.90;;;;;;4842959;29;20477;-59
2023/03/01 07:10:19;;;;;;;9.03;6.83;;;0.80;99.90;;;;;;4842799;29;20486;-59
2023/03/01 07:12:47;;;;;;;10.73;7.70;;;0.80;99.90;;;;;;4853702;29;21010;-59
2023/03/01 07:15:15;;;;;;;9.53;7.23;;;0.80;99.90;;;;;;4843069;29;20841;-60
2023/03/01 07:17:47;;;;;;;7.63;6.50;;;0.90;99.90;;;;;;4842615;29;20481;-59
2023/03/01 07:20:15;;;;;;;9.10;6.23;;;1.00;99.90;;;;;;4842565;29;20483;-59
2023/03/01 07:22:43;;;;;;;9.57;6.43;;;0.90;99.90;;;;;;4848150;29;20840;-59
2023/03/01 07:25:12;;;;;;;7.67;6.30;;;0.80;99.90;;;;;;4848647;29;20475;-59
2023/03/01 07:27:40;;;;;;;8.53;6.50;;;0.80;99.90;;;;;;4845331;29;20997;-59
2023/03/01 07:30:09;;;;;;;8.83;6.43;;;0.80;99.90;;;;;;4842578;29;20464;-59
2023/03/01 07:32:37;;;;;;;10.87;6.73;;;0.70;99.90;;;;;;4842300;29;20852;-59
2023/03/01 07:35:08;;;;;;;7.80;6.27;;;0.80;99.90;;;;;;4842724;29;20487;-59
2023/03/01 07:37:36;;;;;;;9.50;6.17;;;0.80;99.90;;;;;;4842333;29;20499;-59
2023/03/01 07:40:05;;;;;;;7.37;5.53;;;0.80;99.90;;;;;;4842005;29;20470;-59
2023/03/01 07:42:33;;;;;;;8.43;6.10;;;0.90;99.90;;;;;;4842499;29;20480;-58
2023/03/01 07:45:01;;;;;;;7.13;5.57;;;0.90;99.90;;;;;;4842446;29;20973;-59
2023/03/01 07:47:29;;;;;;;9.47;6.37;;;1.20;99.90;;;;;;4841427;29;20477;-59
2023/03/01 07:49:57;;;;;;;8.10;5.97;;;1.20;99.90;;;;;;4841913;29;20470;-59
2023/03/01 07:52:27;;;;;;;8.03;5.90;;;1.30;99.90;;;;;;4845908;29;20832;-58
2023/03/01 07:54:55;;;;;;;7.57;5.50;;;1.30;99.90;;;;;;4852995;29;20490;-59
2023/03/01 07:57:23;;;;;;;7.77;6.30;;;1.40;99.90;;;;;;4860579;29;20970;-59
2023/03/01 07:59:51;;;;;;;8.33;6.87;;;1.50;99.90;;;;;;4860770;29;20981;-59
2023/03/01 08:02:19;;;;;;;7.90;6.37;;;1.50;99.90;;;;;;4860169;29;20503;-59
2023/03/01 08:04:47;;;;;;;9.80;7.10;;;1.50;99.90;;;;;;4840080;29;20479;-59
2023/03/01 08:07:15;;;;;;;8.80;7.03;;;1.60;99.90;;;;;;4823992;29;20478;-59
2023/03/01 08:09:45;;;;;;;8.50;7.43;;;1.60;99.90;;;;;;4824124;29;20482;-59
2023/03/01 08:12:13;;;;;;;10.47;7.13;;;1.70;99.90;;;;;;4844467;29;20490;-59
2023/03/01 08:14:41;;;;;;;9.30;7.43;;;1.70;99.90;;;;;;4855925;29;20561;-59
2023/03/01 08:17:09;;;;;;;10.10;6.77;;;1.90;99.90;;;;;;4851693;29;20988;-59
2023/03/01 08:19:37;;;;;;;9.57;7.63;;;2.10;99.90;;;;;;4844776;29;20888;-59
2023/03/01 08:22:06;;;;;;;8.87;7.83;;;2.00;99.90;;;;;;4842215;29;20478;-59
2023/03/01 08:24:34;;;;;;;11.27;7.07;;;2.10;99.90;;;;;;4849154;29;20473;-59
2023/03/01 08:27:03;;;;;;;9.63;7.50;;;2.30;99.90;;;;;;4851704;29;20470;-59
2023/03/01 08:29:32;;;;;;;9.23;7.20;;;2.20;99.90;;;;;;4823596;29;20481;-58
2023/03/01 08:32:00;;;;;;;9.30;7.20;;;2.40;99.90;;;;;;4824607;29;20493;-59
2023/03/01 08:34:28;;;;;;;9.57;7.67;;;2.40;99.90;;;;;;4827027;29;20498;-59
2023/03/01 08:36:56;;;;;;;9.27;7.60;;;2.40;99.90;;;;;;4827219;29;20477;-59
2023/03/01 08:39:24;;;;;;;9.43;7.07;;;2.30;99.90;;;;;;4827372;29;20471;-59
2023/03/01 08:41:53;;;;;;;9.90;7.30;;;2.40;99.90;;;;;;4845332;29;20469;-59
2023/03/01 08:44:22;;;;;;;9.70;7.50;;;2.40;99.90;;;;;;4858833;29;20469;-58
2023/03/01 08:46:52;;;;;;;10.30;7.27;;;2.40;99.90;;;;;;4863815;29;20456;-59
2023/03/01 08:49:21;;;;;;;10.70;7.10;;;2.50;99.90;;;;;;4864074;29;20472;-59
2023/03/01 08:51:49;;;;;;;8.23;6.83;;;2.50;99.90;;;;;;4863920;29;20477;-59
2023/03/01 08:54:19;;;;;;;9.07;6.60;;;2.50;99.90;;;;;;4847821;29;20506;-59
2023/03/01 08:56:48;;;;;;;10.57;7.40;;;2.60;99.90;;;;;;4847366;29;20560;-59
2023/03/01 08:59:18;;;;;;;11.93;7.57;;;2.60;99.90;;;;;;4845285;29;20471;-59
2023/03/01 09:01:47;;;;;;;10.77;7.23;;;2.70;99.90;;;;;;4844607;29;20482;-59
2023/03/01 09:04:16;;;;;;;12.20;7.93;;;2.80;99.90;;;;;;4845269;29;20906;-59
2023/03/01 09:06:44;;;;;;;13.67;7.93;;;2.90;99.90;;;;;;4845234;29;20481;-59
2023/03/01 09:09:15;;;;;;;13.37;8.10;;;2.90;99.90;;;;;;4845225;29;20491;-59
2023/03/01 09:11:45;;;;;;;12.87;8.37;;;2.90;99.90;;;;;;4852869;29;20481;-59
2023/03/01 09:14:14;;;;;;;14.10;8.50;;;3.00;99.90;;;;;;4845732;29;20492;-59
2023/03/01 09:16:42;;;;;;;15.23;8.80;;;3.20;99.90;;;;;;4843871;29;20568;-59
2023/03/01 09:19:12;;;;;;;14.07;8.30;;;3.50;99.90;;;;;;4844611;29;20469;-59
2023/03/01 09:21:40;;;;;;;11.43;7.70;;;3.50;99.90;;;;;;4844583;29;20477;-59
2023/03/01 09:24:13;;;;;;;13.33;8.00;;;3.50;99.90;;;;;;4857518;29;20540;-59
2023/03/01 09:26:42;;;;;;;13.93;8.13;;;3.60;99.90;;;;;;4854286;29;20831;-59
2023/03/01 09:29:12;;;;;;;13.00;8.63;;;3.50;99.90;;;;;;4839494;29;21014;-60
2023/03/01 09:31:43;;;;;;;13.70;8.17;;;3.50;99.90;;;;;;4838706;29;20476;-59
2023/03/01 09:34:15;;;;;;;10.87;7.10;;;3.50;99.90;;;;;;4838518;29;20498;-60
2023/03/01 09:36:43;;;;;;;11.17;6.97;;;3.50;99.90;;;;;;4839292;29;21080;-59
2023/03/01 09:39:11;;;;;;;10.97;7.23;;;3.50;99.90;;;;;;4844731;29;20487;-59
2023/03/01 09:41:54;;;;;;;11.70;7.27;;;3.60;99.90;;;;;;4836726;29;20490;-59
2023/03/01 09:44:31;;;;;;;10.47;7.00;;;3.80;99.90;;;;;;4835606;29;20472;-58
2023/03/01 09:47:00;;;;;;;10.53;6.97;;;3.80;99.90;;;;;;4844599;29;20467;-59
2023/03/01 09:49:33;;;;;;;11.33;7.23;;;3.90;99.90;;;;;;4833752;29;20484;-58
2023/03/01 09:52:10;;;;;;;12.50;8.10;;;3.90;99.90;;;;;;4826825;29;20479;-59
2023/03/01 09:54:38;;;;;;;10.77;7.07;;;3.90;99.90;;;;;;4835950;29;20496;-59
2023/03/01 09:57:15;;;;;;;10.23;7.50;;;3.90;99.90;;;;;;4833855;29;20840;-59
2023/03/01 09:59:58;;;;;;;11.93;8.00;;;3.90;99.90;;;;;;4831326;29;21165;-59
2023/03/01 10:02:32;;;;;;;11.90;7.90;;;4.00;99.90;;;;;;4843601;29;21018;-59
2023/03/01 10:05:15;;;;;;;10.70;7.17;;;4.00;99.90;;;;;;4844699;29;20963;-59
2023/03/01 10:07:53;;;;;;;11.60;7.53;;;4.00;99.90;;;;;;4853296;29;20484;-59
2023/03/01 10:10:32;;;;;;;12.23;7.47;;;4.00;99.90;;;;;;4856494;29;20486;-59
2023/03/01 10:13:03;;;;;;;11.47;7.90;;;4.00;99.90;;;;;;4856338;29;20483;-59
2023/03/01 10:15:39;;;;;;;12.60;8.23;;;4.00;99.90;;;;;;4844053;29;21006;-59
2023/03/01 10:18:12;;;;;;;13.27;8.20;;;4.00;99.90;;;;;;4846836;29;20524;-59
2023/03/01 10:20:49;;;;;;;12.80;8.67;;;3.90;99.90;;;;;;4845010;29;20490;-59
2023/03/01 10:23:17;;;;;;;12.43;8.23;;;3.70;99.90;;;;;;4859455;29;20471;-59
2023/03/01 10:25:57;;;;;;;14.30;8.03;;;3.70;99.90;;;;;;4855265;29;20476;-59
2023/03/01 10:28:31;;;;;;;14.30;9.17;;;3.70;99.90;;;;;;4848668;29;20579;-58
2023/03/01 10:31:00;;;;;;;13.13;9.03;;;3.70;99.90;;;;;;4829826;29;20567;-59
2023/03/01 10:33:32;;;;;;;13.23;8.60;;;3.60;99.90;;;;;;4826786;29;20968;-59
2023/03/01 10:36:02;;;;;;;14.83;9.57;;;3.70;99.90;;;;;;4859774;29;21021;-59
2023/03/01 10:38:32;;;;;;;15.43;9.37;;;3.70;99.90;;;;;;4843407;29;20479;-59
2023/03/01 10:41:06;;;;;;;12.63;8.63;;;3.80;99.90;;;;;;4846955;29;20481;-58
2023/03/01 10:43:45;;;;;;;13.27;8.57;;;4.00;99.90;;;;;;4852525;29;20830;-59
2023/03/01 10:46:24;;;;;;;12.13;8.73;;;4.10;99.90;;;;;;4843482;29;20870;-58
2023/03/01 10:49:08;;;;;;;15.60;8.83;;;4.10;99.90;;;;;;4843343;29;20542;-59
2023/03/01 10:51:40;;;;;;;15.10;9.47;;;4.00;99.90;;;;;;4843064;29;20467;-59
2023/03/01 10:54:18;;;;;;;15.33;8.97;;;4.10;99.90;;;;;;4851220;29;20475;-59
2023/03/01 10:56:52;;;;;;;15.10;9.10;;;4.10;99.90;;;;;;4845259;29;20472;-59
2023/03/01 10:59:28;;;;;;;18.10;9.77;;;4.10;99.90;;;;;;4843790;29;20844;-59
2023/03/01 11:02:15;;;;;;;16.40;9.80;;;4.10;99.90;;;;;;4859539;29;20478;-59
2023/03/01 11:05:00;;;;;;;13.83;8.53;;;4.30;99.90;;;;;;4848823;29;20482;-59
2023/03/01 11:07:30;;;;;;;14.63;8.67;;;4.40;99.90;;;;;;4842746;29;20482;-59
2023/03/01 11:09:59;;;;;;;14.77;8.97;;;4.50;99.90;;;;;;4842685;29;20488;-59
2023/03/01 11:12:29;;;;;;;14.60;9.77;;;4.50;99.90;;;;;;4850520;29;20484;-59
2023/03/01 11:14:58;;;;;;;14.50;8.70;;;4.40;99.90;;;;;;4860754;29;20249;-59
2023/03/01 11:17:29;;;;;;;15.77;9.03;;;4.40;99.90;;;;;;4849470;29;20480;-59
2023/03/01 11:20:19;;;;;;;13.07;8.43;;;4.50;99.90;;;;;;4842855;29;20652;-59
2023/03/01 11:22:53;;;;;;;14.43;9.43;;;4.50;99.90;;;;;;4849153;29;20487;-59
2023/03/01 11:25:25;;;;;;;15.60;9.40;;;4.50;99.90;;;;;;4850649;29;20483;-58
2023/03/01 11:27:55;;;;;;;16.13;9.03;;;4.60;99.90;;;;;;4838244;29;20486;-58
2023/03/01 11:30:28;;;;;;;16.00;9.30;;;4.70;99.90;;;;;;4842227;29;20489;-58
2023/03/01 11:33:06;;;;;;;15.17;9.53;;;4.70;99.90;;;;;;4843497;29;20237;-58
2023/03/01 11:35:37;;;;;;;16.10;10.00;;;4.60;99.90;;;;;;4839199;29;20492;-58
2023/03/01 11:38:17;;;;;;;17.10;10.57;;;4.60;99.90;;;;;;4826397;29;20477;-58
2023/03/01 11:40:52;;;;;;;18.50;11.23;;;4.60;99.90;;;;;;4844780;29;20484;-58
2023/03/01 11:43:30;;;;;;;21.10;12.67;;;4.50;99.90;;;;;;4848156;29;20867;-58
2023/03/01 11:46:43;;;;;;;20.60;12.53;;;4.50;99.90;;;;;;4852096;29;21001;-58
2023/03/01 11:49:26;;;;;;;21.80;14.23;;;4.70;99.90;;;;;;4843262;29;20280;-58
2023/03/01 11:51:59;;;;;;;25.30;14.97;;;4.90;99.90;;;;;;4842323;29;20469;-58
2023/03/01 11:54:45;;;;;;;22.43;13.83;;;5.00;99.90;;;;;;4835077;29;20471;-59
2023/03/01 11:57:21;;;;;;;23.57;13.93;;;5.10;99.90;;;;;;4838915;29;20242;-58
2023/03/01 12:00:16;;;;;;;26.00;14.53;;;5.20;99.90;;;;;;4852510;29;20647;-59
2023/03/01 12:03:31;;;;;;;23.77;13.20;;;5.20;99.90;;;;;;4847880;29;20302;-59
2023/03/01 12:06:13;;;;;;;23.97;12.87;;;5.20;99.90;;;;;;4838714;29;20508;-58
2023/03/01 12:08:46;;;;;;;20.57;12.33;;;5.20;99.90;;;;;;4837254;29;20235;-58
2023/03/01 12:11:27;;;;;;;23.93;13.30;;;5.30;99.90;;;;;;4843280;29;20230;-58
2023/03/01 12:14:28;;;;;;;22.57;12.83;;;5.10;99.90;;;;;;4836110;29;20243;-58
2023/03/01 12:17:33;;;;;;;24.27;12.73;;;5.20;99.90;;;;;;4838603;29;20495;-58
2023/03/01 12:20:18;;;;;;;26.27;14.07;;;5.20;99.90;;;;;;4830473;29;20234;-58
2023/03/01 12:22:58;;;;;;;25.93;13.37;;;5.30;99.90;;;;;;4849397;29;20493;-58
2023/03/01 12:25:49;;;;;;;25.93;14.03;;;5.50;99.90;;;;;;4853622;29;20238;-58
2023/03/01 12:28:34;;;;;;;22.40;13.73;;;5.50;99.90;;;;;;4842496;29;20570;-58
2023/03/01 12:31:17;;;;;;;22.80;13.17;;;5.40;99.90;;;;;;4842576;29;20570;-58
2023/03/01 12:33:53;;;;;;;25.70;14.20;;;5.40;99.90;;;;;;4842471;29;20635;-58
2023/03/01 12:36:38;;;;;;;24.97;14.30;;;5.50;99.90;;;;;;4845144;29;20622;-58
2023/03/01 12:39:23;;;;;;;29.83;16.23;;;5.60;99.90;;;;;;4844438;29;20231;-58
2023/03/01 12:42:02;;;;;;;27.27;15.30;;;5.70;99.90;;;;;;4845534;29;20583;-58
2023/03/01 12:45:03;;;;;;;23.73;14.57;;;5.70;99.90;;;;;;4850559;29;20233;-58
2023/03/01 12:47:46;;;;;;;28.07;14.93;;;5.60;99.90;;;;;;4822698;29;20606;-58
2023/03/01 12:50:20;;;;;;;30.17;16.47;;;5.50;99.90;;;;;;4841974;29;20245;-58
2023/03/01 12:52:52;;;;;;;27.77;16.53;;;5.40;99.90;;;;;;4845384;29;20463;-58
2023/03/01 12:55:29;;;;;;;26.27;16.67;;;5.40;99.90;;;;;;4852279;29;20725;-58
2023/03/01 12:58:05;;;;;;;29.47;17.17;;;5.50;99.90;;;;;;4860028;29;20237;-58
2023/03/01 13:00:39;;;;;;;26.63;17.20;;;5.50;99.90;;;;;;4839464;29;20719;-58
2023/03/01 13:03:20;;;;;;;29.70;18.07;;;5.50;99.90;;;;;;4823462;29;20226;-58
2023/03/01 13:06:03;;;;;;;26.10;16.97;;;5.60;99.90;;;;;;4835408;29;20232;-58
2023/03/01 13:08:38;;;;;;;29.70;19.07;;;5.60;99.90;;;;;;4830458;29;20613;-58
2023/03/01 13:11:12;;;;;;;27.60;17.83;;;5.60;99.90;;;;;;4836717;29;20326;-58
2023/03/01 13:13:40;;;;;;;28.73;19.13;;;5.70;99.90;;;;;;4836778;29;20487;-58
2023/03/01 13:16:38;;;;;;;29.57;19.83;;;5.90;99.90;;;;;;4837270;29;20703;-58
2023/03/01 13:19:14;;;;;;;30.53;19.70;;;5.80;99.90;;;;;;4840005;29;20700;-58